createdAt,value
2018-12-09T00:00:40.628Z,98918.28
2018-12-09T00:03:10.544Z,98922.81
2018-12-09T00:05:39.982Z,98921.38
2018-12-09T00:08:10.193Z,98919.20
2018-12-09T00:10:42.107Z,98929.11
2018-12-09T00:13:14.325Z,98929.11
2018-12-09T00:15:46.497Z,98924.18
2018-12-09T00:18:21.063Z,98931.52
2018-12-09T00:20:53.711Z,98940.16
2018-12-09T00:23:27.380Z,98942.33
2018-12-09T00:25:59.601Z,98957.13
2018-12-09T00:28:32.663Z,98936.89
2018-12-09T00:31:05.316Z,98943.58
2018-12-09T00:33:37.975Z,98950.39
2018-12-09T00:36:10.552Z,98954.57
2018-12-09T00:38:44.080Z,98950.92
2018-12-09T00:41:16.268Z,98943.24
2018-12-09T00:43:45.948Z,98951.76
2018-12-09T00:46:18.540Z,98938.47
2018-12-09T00:48:51.741Z,98937.05
2018-12-09T00:51:23.799Z,98930.19
2018-12-09T00:53:55.874Z,98937.38
2018-12-09T00:56:30.516Z,98937.16
2018-12-09T00:59:03.043Z,98935.79
2018-12-09T01:01:35.179Z,98938.42
2018-12-09T01:04:07.373Z,98946.44
2018-12-09T01:06:39.870Z,98949.19
2018-12-09T01:09:12.090Z,98939.83
2018-12-09T01:11:44.239Z,98938.62
2018-12-09T01:14:16.321Z,98944.48
2018-12-09T01:16:48.436Z,98951.46
2018-12-09T01:19:21.066Z,98948.25
2018-12-09T01:21:53.705Z,98954.61
2018-12-09T01:24:26.354Z,98958.17
2018-12-09T01:26:59.914Z,98938.53
2018-12-09T01:29:34.021Z,98950.27
2018-12-09T01:32:07.049Z,98935.79
2018-12-09T01:34:39.590Z,98967.78
2018-12-09T01:37:10.160Z,98954.12
2018-12-09T01:39:40.884Z,98970.25
2018-12-09T01:42:13.209Z,98974.17
2018-12-09T01:44:46.852Z,98974.48
2018-12-09T01:47:19.306Z,98986.80
2018-12-09T01:49:53.315Z,98986.80
2018-12-09T01:52:26.562Z,98986.38
2018-12-09T01:54:58.733Z,98986.33
2018-12-09T01:57:31.917Z,98995.66
2018-12-09T02:00:06.670Z,99001.39
2018-12-09T02:02:39.378Z,98998.12
2018-12-09T02:05:13.025Z,99010.94
2018-12-09T02:07:45.642Z,99007.31
2018-12-09T02:10:18.211Z,99020.70
2018-12-09T02:12:51.301Z,99018.11
2018-12-09T02:15:23.395Z,99028.19
2018-12-09T02:17:55.995Z,99029.48
2018-12-09T02:20:28.111Z,99035.98
2018-12-09T02:23:00.664Z,99036.62
2018-12-09T02:25:33.881Z,99027.38
2018-12-09T02:28:06.873Z,99037.36
2018-12-09T02:30:42.952Z,99028.03
2018-12-09T02:33:17.136Z,99049.61
2018-12-09T02:35:53.647Z,99050.41
2018-12-09T02:38:25.742Z,99043.70
2018-12-09T02:40:58.844Z,99047.27
2018-12-09T02:43:36.009Z,99037.59
2018-12-09T02:46:09.518Z,99037.30
2018-12-09T02:48:42.582Z,99042.61
2018-12-09T02:51:15.295Z,99035.95
2018-12-09T02:53:48.609Z,99044.80
2018-12-09T02:56:22.823Z,99050.14
2018-12-09T02:58:55.632Z,99034.48
2018-12-09T03:01:29.442Z,99042.56
2018-12-09T03:04:02.180Z,99026.63
2018-12-09T03:06:34.461Z,99028.88
2018-12-09T03:09:11.131Z,99030.38
2018-12-09T03:11:43.378Z,99025.86
2018-12-09T03:14:16.050Z,99037.12
2018-12-09T03:16:48.851Z,99039.09
2018-12-09T03:19:21.300Z,99050.31
2018-12-09T03:21:53.476Z,99043.75
2018-12-09T03:24:26.550Z,99050.51
2018-12-09T03:26:58.637Z,99057.81
2018-12-09T03:29:30.745Z,99055.84
2018-12-09T03:32:02.825Z,99063.89
2018-12-09T03:34:35.901Z,99057.33
2018-12-09T03:37:08.433Z,99059.98
2018-12-09T03:39:40.951Z,99046.47
2018-12-09T03:42:14.022Z,99045.09
2018-12-09T03:44:47.131Z,99048.39
2018-12-09T03:47:20.175Z,99056.81
2018-12-09T03:49:52.269Z,99061.30
2018-12-09T03:52:24.338Z,99061.46
2018-12-09T03:54:56.932Z,99067.22
2018-12-09T03:57:29.534Z,99062.05
2018-12-09T04:00:02.565Z,99077.05
2018-12-09T04:02:35.619Z,99076.08
2018-12-09T04:05:08.131Z,99064.65
2018-12-09T04:07:40.361Z,99071.48
2018-12-09T04:10:12.953Z,99067.18
2018-12-09T04:12:45.526Z,99076.63
2018-12-09T04:15:18.729Z,99087.05
2018-12-09T04:17:50.929Z,99077.95
2018-12-09T04:20:23.170Z,99085.19
2018-12-09T04:22:55.559Z,99074.86
2018-12-09T04:25:28.266Z,99094.64
2018-12-09T04:28:01.454Z,99088.75
2018-12-09T04:30:34.408Z,99094.87
2018-12-09T04:33:06.617Z,99100.30
2018-12-09T04:35:38.830Z,99095.80
2018-12-09T04:38:11.554Z,99093.27
2018-12-09T04:40:45.799Z,99087.45
2018-12-09T04:43:19.017Z,99102.94
2018-12-09T04:45:53.277Z,99105.55
2018-12-09T04:48:26.151Z,99111.27
2018-12-09T04:50:58.505Z,99104.44
2018-12-09T04:53:30.805Z,99125.72
2018-12-09T04:56:03.827Z,99118.02
2018-12-09T04:58:38.349Z,99125.17
2018-12-09T05:01:10.626Z,99117.47
2018-12-09T05:03:42.996Z,99124.13
2018-12-09T05:06:16.591Z,99115.49
2018-12-09T05:08:48.704Z,99122.36
2018-12-09T05:11:20.887Z,99127.04
2018-12-09T05:13:54.329Z,99115.88
2018-12-09T05:16:26.450Z,99118.31
2018-12-09T05:19:00.638Z,99124.68
2018-12-09T05:21:33.596Z,99127.88
2018-12-09T05:24:07.668Z,99127.78
2018-12-09T05:26:40.713Z,99121.98
2018-12-09T05:29:14.734Z,99131.53
2018-12-09T05:31:48.253Z,99138.11
2018-12-09T05:34:20.781Z,99149.63
2018-12-09T05:36:53.810Z,99150.39
2018-12-09T05:39:26.340Z,99155.91
2018-12-09T05:41:58.869Z,99148.79
2018-12-09T05:44:31.371Z,99146.72
2018-12-09T05:47:04.369Z,99154.61
2018-12-09T05:49:36.873Z,99154.14
2018-12-09T05:52:09.383Z,99161.81
2018-12-09T05:54:41.881Z,99158.55
2018-12-09T05:57:15.887Z,99164.27
2018-12-09T05:59:47.938Z,99180.30
2018-12-09T06:02:30.022Z,99180.02
2018-12-09T06:05:03.647Z,99180.58
2018-12-09T06:07:35.769Z,99186.75
2018-12-09T06:10:08.911Z,99186.27
2018-12-09T06:12:44.058Z,99187.49
2018-12-09T06:15:16.538Z,99186.57
2018-12-09T06:17:49.739Z,99179.47
2018-12-09T06:20:22.028Z,99182.00
2018-12-09T06:22:54.234Z,99180.23
2018-12-09T06:25:27.291Z,99179.38
2018-12-09T06:28:00.345Z,99187.16
2018-12-09T06:30:33.386Z,99186.39
2018-12-09T06:33:05.892Z,99182.43
2018-12-09T06:35:39.372Z,99191.43
2018-12-09T06:38:12.373Z,99200.80
2018-12-09T06:40:45.371Z,99203.36
2018-12-09T06:43:17.939Z,99211.78
2018-12-09T06:45:50.907Z,99209.52
2018-12-09T06:48:23.910Z,99199.67
2018-12-09T06:50:56.426Z,99192.01
2018-12-09T06:53:29.506Z,99204.95
2018-12-09T06:56:01.926Z,99197.44
2018-12-09T06:58:34.438Z,99201.65
2018-12-09T07:01:07.459Z,99210.02
2018-12-09T07:03:39.962Z,99220.91
2018-12-09T07:06:12.575Z,99226.89
2018-12-09T07:08:44.973Z,99228.20
2018-12-09T07:11:18.013Z,99232.42
2018-12-09T07:13:51.058Z,99230.28
2018-12-09T07:16:25.093Z,99239.56
2018-12-09T07:18:58.701Z,99257.97
2018-12-09T07:21:32.889Z,99256.02
2018-12-09T07:24:05.511Z,99259.65
2018-12-09T07:26:38.217Z,99261.23
2018-12-09T07:29:10.798Z,99254.30
2018-12-09T07:31:43.469Z,99263.68
2018-12-09T07:34:15.655Z,99272.96
2018-12-09T07:36:47.799Z,99284.50
2018-12-09T07:39:20.021Z,99281.42
2018-12-09T07:41:53.206Z,99280.95
2018-12-09T07:44:45.159Z,99285.66
2018-12-09T07:47:20.196Z,99291.67
2018-12-09T07:49:53.829Z,99287.44
2018-12-09T07:52:26.433Z,99288.66
2018-12-09T07:54:58.501Z,99304.35
2018-12-09T07:57:31.060Z,99302.95
2018-12-09T08:00:04.081Z,99307.98
2018-12-09T08:02:37.180Z,99318.89
2018-12-09T08:05:09.791Z,99319.47
2018-12-09T08:07:43.893Z,99324.36
2018-12-09T08:13:25.838Z,99328.84
2018-12-09T08:15:58.130Z,99327.63
2018-12-09T08:18:30.351Z,99337.97
2018-12-09T08:21:02.732Z,99334.48
2018-12-09T08:23:34.940Z,99335.23
2018-12-09T08:26:07.148Z,99339.94
2018-12-09T08:28:39.858Z,99347.27
2018-12-09T08:31:11.742Z,99342.67
2018-12-09T08:33:44.105Z,99352.34
2018-12-09T08:36:15.904Z,99357.32
2018-12-09T08:39:03.455Z,99354.23
2018-12-09T08:41:50.268Z,99353.95
2018-12-09T08:44:38.963Z,99355.27
2018-12-09T08:47:17.897Z,99354.22
2018-12-09T08:49:50.458Z,99357.61
2018-12-09T08:52:24.031Z,99361.00
2018-12-09T08:54:56.169Z,99351.21
2018-12-09T08:57:28.763Z,99356.09
2018-12-09T09:00:02.381Z,99373.39
2018-12-09T09:02:34.638Z,99368.11
2018-12-09T09:05:06.686Z,99367.48
2018-12-09T09:07:39.768Z,99372.25
2018-12-09T09:10:12.401Z,99369.62
2018-12-09T09:12:45.066Z,99376.59
2018-12-09T09:15:17.203Z,99380.33
2018-12-09T09:17:50.827Z,99379.95
2018-12-09T09:20:23.217Z,99381.95
2018-12-09T09:22:55.488Z,99377.23
2018-12-09T09:25:28.760Z,99387.48
2018-12-09T09:28:03.787Z,99390.47
2018-12-09T09:30:36.017Z,99389.17
2018-12-09T09:33:08.378Z,99385.61
2018-12-09T09:35:38.716Z,99391.88
2018-12-09T09:38:08.039Z,99396.31
2018-12-09T09:40:37.595Z,99395.27
2018-12-09T09:43:07.150Z,99398.94
2018-12-09T09:45:38.682Z,99398.94
2018-12-09T09:48:07.899Z,99397.83
2018-12-09T09:50:37.307Z,99404.39
2018-12-09T09:53:07.407Z,99403.07
2018-12-09T09:55:36.918Z,99409.66
2018-12-09T09:58:07.406Z,99402.98
2018-12-09T10:00:37.559Z,99415.02
2018-12-09T10:03:07.191Z,99411.72
2018-12-09T10:05:36.878Z,99412.84
2018-12-09T10:08:06.732Z,99418.86
2018-12-09T10:10:36.361Z,99423.63
2018-12-09T10:13:07.051Z,99428.30
2018-12-09T10:15:36.351Z,99432.34
2018-12-09T10:18:06.034Z,99430.11
2018-12-09T10:20:35.335Z,99437.42
2018-12-09T10:23:04.831Z,99437.48
2018-12-09T10:25:34.308Z,99445.36
2018-12-09T10:28:04.018Z,99444.33
2018-12-09T10:30:33.552Z,99427.52
2018-12-09T10:33:03.358Z,99443.64
2018-12-09T10:35:33.829Z,99436.40
2018-12-09T10:38:04.054Z,99436.03
2018-12-09T10:40:35.137Z,99451.48
2018-12-09T10:43:04.503Z,99446.72
2018-12-09T10:45:34.709Z,99444.66
2018-12-09T10:48:05.511Z,99441.38
2018-12-09T10:50:36.038Z,99441.66
2018-12-09T10:53:05.440Z,99434.27
2018-12-09T10:55:36.039Z,99437.75
2018-12-09T10:58:05.507Z,99438.52
2018-12-09T11:00:40.254Z,99440.97
2018-12-09T11:03:10.624Z,99435.16
2018-12-09T11:05:39.904Z,99435.62
2018-12-09T11:08:09.203Z,99434.03
2018-12-09T11:10:39.135Z,99434.61
2018-12-09T11:13:09.485Z,99441.55
2018-12-09T11:15:39.148Z,99446.47
2018-12-09T11:18:10.163Z,99445.34
2018-12-09T11:20:42.914Z,99449.55
2018-12-09T11:23:12.387Z,99461.78
2018-12-09T11:25:41.826Z,99458.69
2018-12-09T11:28:11.073Z,99472.13
2018-12-09T11:30:40.854Z,99472.31
2018-12-09T11:33:10.911Z,99470.18
2018-12-09T11:35:40.144Z,99467.36
2018-12-09T11:38:09.811Z,99479.39
2018-12-09T11:40:39.761Z,99471.75
2018-12-09T11:43:11.626Z,99473.54
2018-12-09T11:45:41.115Z,99474.77
2018-12-09T11:48:10.354Z,99485.02
2018-12-09T11:50:39.996Z,99489.16
2018-12-09T11:53:09.477Z,99539.13
2018-12-09T11:55:38.773Z,99547.55
2018-12-09T11:58:08.969Z,99533.50
2018-12-09T12:00:38.573Z,99534.16
2018-12-09T12:03:08.244Z,99539.73
2018-12-09T12:05:37.829Z,99532.73
2018-12-09T12:08:07.980Z,99536.91
2018-12-09T12:10:38.455Z,99544.37
2018-12-09T12:13:07.739Z,99535.27
2018-12-09T12:15:37.680Z,99541.78
2018-12-09T12:18:07.105Z,99538.30
2018-12-09T12:20:36.981Z,99551.86
2018-12-09T12:23:07.256Z,99558.74
2018-12-09T12:25:37.320Z,99555.22
2018-12-09T12:28:07.052Z,99559.68
2018-12-09T12:30:37.209Z,99561.15
2018-12-09T12:33:07.209Z,99568.16
2018-12-09T12:35:36.798Z,99568.48
2018-12-09T12:38:06.284Z,99581.27
2018-12-09T12:40:35.973Z,99581.19
2018-12-09T12:43:05.403Z,99595.38
2018-12-09T12:45:34.962Z,99594.84
2018-12-09T12:48:04.429Z,99595.52
2018-12-09T12:50:33.901Z,99597.41
2018-12-09T12:53:03.398Z,99605.56
2018-12-09T12:55:32.638Z,99609.34
2018-12-09T12:58:02.019Z,99611.03
2018-12-09T13:00:31.444Z,99621.13
2018-12-09T13:03:01.225Z,99620.37
2018-12-09T13:05:31.551Z,99629.00
2018-12-09T13:08:00.956Z,99631.55
2018-12-09T13:10:30.613Z,99628.23
2018-12-09T13:12:59.977Z,99636.80
2018-12-09T13:15:29.701Z,99643.61
2018-12-09T13:17:59.378Z,99652.31
2018-12-09T13:20:28.921Z,99657.64
2018-12-09T13:22:58.414Z,99665.89
2018-12-09T13:25:27.886Z,99672.45
2018-12-09T13:27:57.353Z,99676.59
2018-12-09T13:30:26.727Z,99684.31
2018-12-09T13:32:56.061Z,99686.03
2018-12-09T13:35:26.037Z,99691.30
2018-12-09T13:37:55.524Z,99704.66
2018-12-09T13:40:25.166Z,99712.14
2018-12-09T13:42:55.217Z,99708.52
2018-12-09T13:45:24.868Z,99712.55
2018-12-09T13:47:54.357Z,99722.56
2018-12-09T13:50:24.524Z,99727.00
2018-12-09T13:52:54.611Z,99736.44
2018-12-09T13:55:23.999Z,99740.91
2018-12-09T13:57:53.382Z,99754.12
2018-12-09T14:00:23.520Z,99767.72
2018-12-09T14:02:52.828Z,99774.82
2018-12-09T14:05:22.154Z,99785.70
2018-12-09T14:07:51.504Z,99792.76
2018-12-09T14:10:20.900Z,99792.59
2018-12-09T14:12:50.246Z,99801.41
2018-12-09T14:15:35.109Z,99807.81
2018-12-09T14:18:07.155Z,99814.84
2018-12-09T14:20:36.622Z,99820.02
2018-12-09T14:23:06.179Z,99821.72
2018-12-09T14:25:35.718Z,99820.16
2018-12-09T14:28:05.225Z,99833.37
2018-12-09T14:30:34.995Z,99833.86
2018-12-09T14:33:04.449Z,99839.09
2018-12-09T14:35:34.673Z,99849.68
2018-12-09T14:38:04.109Z,99849.84
2018-12-09T14:40:33.597Z,99857.41
2018-12-09T14:43:03.090Z,99858.50
2018-12-09T14:45:32.491Z,99859.50
2018-12-09T14:48:01.715Z,99871.86
2018-12-09T14:50:31.088Z,99883.37
2018-12-09T14:53:00.407Z,99885.84
2018-12-09T14:55:29.847Z,99892.73
2018-12-09T14:57:59.569Z,99901.02
2018-12-09T15:00:28.937Z,99910.97
2018-12-09T15:02:58.545Z,99919.10
2018-12-09T15:05:28.082Z,99920.58
2018-12-09T15:07:57.625Z,99930.76
2018-12-09T15:10:28.515Z,99936.58
2018-12-09T15:12:58.309Z,99940.73
2018-12-09T15:15:27.643Z,99942.36
2018-12-09T15:17:57.082Z,99952.02
2018-12-09T15:20:26.514Z,99956.42
2018-12-09T15:22:56.541Z,99971.58
2018-12-09T15:25:25.754Z,99971.41
2018-12-09T15:27:55.075Z,99984.39
2018-12-09T15:30:24.468Z,99992.91
2018-12-09T15:32:53.993Z,99991.75
2018-12-09T15:35:23.643Z,100007.03
2018-12-09T15:37:53.221Z,100007.97
2018-12-09T15:40:22.487Z,100015.62
2018-12-09T15:42:51.808Z,100021.10
2018-12-09T15:45:21.278Z,100025.04
2018-12-09T15:47:50.546Z,100034.05
2018-12-09T15:50:21.534Z,100041.74
2018-12-09T15:52:50.802Z,100046.29
2018-12-09T15:55:20.065Z,100043.44
2018-12-09T15:57:50.038Z,100061.45
2018-12-09T16:00:19.550Z,100080.45
2018-12-09T16:02:49.520Z,100079.41
2018-12-09T16:05:19.973Z,100083.87
2018-12-09T16:07:49.522Z,100094.53
2018-12-09T16:10:18.968Z,100109.36
2018-12-09T16:12:48.472Z,100123.13
2018-12-09T16:15:17.899Z,100133.56
2018-12-09T16:17:47.240Z,100129.64
2018-12-09T16:20:16.909Z,100131.74
2018-12-09T16:22:46.507Z,100141.53
2018-12-09T16:25:16.513Z,100148.30
2018-12-09T16:27:47.140Z,100156.31
2018-12-09T16:30:17.445Z,100159.29
2018-12-09T16:32:46.954Z,100164.40
2018-12-09T16:35:16.461Z,100158.70
2018-12-09T16:37:45.866Z,100165.58
2018-12-09T16:40:15.494Z,100177.91
2018-12-09T16:42:45.990Z,100182.48
2018-12-09T16:45:15.362Z,100195.25
2018-12-09T16:47:44.722Z,100211.71
2018-12-09T16:50:14.337Z,100207.54
2018-12-09T16:52:44.020Z,100223.23
2018-12-09T16:55:13.933Z,100223.75
2018-12-09T16:57:43.684Z,100238.30
2018-12-09T17:00:19.895Z,100243.30
2018-12-09T17:02:50.028Z,100247.85
2018-12-09T17:05:19.390Z,100249.73
2018-12-09T17:07:49.705Z,100261.09
2018-12-09T17:10:19.099Z,100273.71
2018-12-09T17:12:48.549Z,100275.79
2018-12-09T17:15:21.791Z,100289.77
2018-12-09T17:17:52.396Z,100293.72
2018-12-09T17:20:23.929Z,100298.97
2018-12-09T17:22:53.440Z,100302.39
2018-12-09T17:25:22.897Z,100314.66
2018-12-09T17:27:52.207Z,100312.16
2018-12-09T17:30:22.368Z,100332.81
2018-12-09T17:32:51.967Z,100329.45
2018-12-09T17:35:21.616Z,100331.02
2018-12-09T17:37:51.618Z,100348.61
2018-12-09T17:40:21.084Z,100347.90
2018-12-09T17:42:50.621Z,100353.60
2018-12-09T17:45:20.242Z,100361.86
2018-12-09T17:47:50.179Z,100362.80
2018-12-09T17:50:19.734Z,100365.20
2018-12-09T17:52:49.404Z,100380.38
2018-12-09T17:55:19.199Z,100384.98
2018-12-09T17:57:49.100Z,100399.14
2018-12-09T18:00:19.540Z,100405.02
2018-12-09T18:02:49.024Z,100413.95
2018-12-09T18:05:18.563Z,100414.77
2018-12-09T18:07:47.958Z,100426.59
2018-12-09T18:10:17.365Z,100438.95
2018-12-09T18:12:48.142Z,100450.28
2018-12-09T18:15:21.716Z,100455.66
2018-12-09T18:17:51.327Z,100453.03
2018-12-09T18:20:21.598Z,100462.16
2018-12-09T18:22:51.010Z,100473.02
2018-12-09T18:25:22.478Z,100478.72
2018-12-09T18:30:25.851Z,100490.03
2018-12-09T18:32:56.658Z,100502.86
2018-12-09T18:35:26.695Z,100501.80
2018-12-09T18:37:57.475Z,100506.78
2018-12-09T18:40:26.883Z,100512.53
2018-12-09T18:42:57.481Z,100518.73
2018-12-09T18:45:26.968Z,100517.56
2018-12-09T18:47:56.418Z,100527.41
2018-12-09T18:50:25.819Z,100542.06
2018-12-09T18:52:57.988Z,100545.84
2018-12-09T18:55:27.403Z,100555.09
2018-12-09T18:57:57.298Z,100553.03
2018-12-09T19:00:27.125Z,100562.38
2018-12-09T19:02:56.590Z,100565.90
2018-12-09T19:05:26.087Z,100578.36
2018-12-09T19:07:55.896Z,100580.00
2018-12-09T19:10:25.675Z,100573.00
2018-12-09T19:12:58.190Z,100581.95
2018-12-09T19:15:28.613Z,100586.12
2018-12-09T19:18:02.220Z,100593.56
2018-12-09T19:20:31.505Z,100606.30
2018-12-09T19:23:01.334Z,100607.55
2018-12-09T19:25:30.722Z,100617.19
2018-12-09T19:28:01.281Z,100622.44
2018-12-09T19:30:30.790Z,100627.56
2018-12-09T19:33:01.305Z,100645.12
2018-12-09T19:35:31.132Z,100649.71
2018-12-09T19:38:00.444Z,100652.78
2018-12-09T19:40:29.800Z,100661.42
2018-12-09T19:42:59.084Z,100660.84
2018-12-09T19:45:28.521Z,100665.46
2018-12-09T19:47:57.889Z,100668.30
2018-12-09T19:50:44.862Z,100667.25
2018-12-09T19:53:16.936Z,100670.63
2018-12-09T19:55:46.401Z,100677.63
2018-12-09T19:58:17.303Z,100689.28
2018-12-09T20:00:46.600Z,100693.64
2018-12-09T20:03:17.186Z,100701.20
2018-12-09T20:05:46.924Z,100702.20
2018-12-09T20:08:16.755Z,100706.39
2018-12-09T20:10:46.859Z,100714.63
2018-12-09T20:13:18.598Z,100705.63
2018-12-09T20:15:49.099Z,100705.73
2018-12-09T20:18:19.011Z,100708.17
2018-12-09T20:20:49.531Z,100714.73
2018-12-09T20:23:19.497Z,100710.48
2018-12-09T20:25:53.524Z,100713.70
2018-12-09T20:28:24.760Z,100727.63
2018-12-09T20:30:58.546Z,100725.50
2018-12-09T20:33:31.723Z,100734.29
2018-12-09T20:36:03.325Z,100739.73
2018-12-09T20:38:32.673Z,100743.02
2018-12-09T20:41:03.392Z,100756.38
2018-12-09T20:43:34.743Z,100756.48
2018-12-09T20:46:04.275Z,100743.08
2018-12-09T20:48:33.697Z,100756.63
2018-12-09T20:51:04.104Z,100754.73
2018-12-09T20:53:34.579Z,100756.44
2018-12-09T20:56:04.931Z,100764.36
2018-12-09T20:58:36.212Z,100773.23
2018-12-09T21:01:06.431Z,100773.93
2018-12-09T21:03:35.919Z,100771.20
2018-12-09T21:06:06.482Z,100779.80
2018-12-09T21:08:37.163Z,100782.94
2018-12-09T21:11:07.410Z,100785.42
2018-12-09T21:13:38.788Z,100795.73
2018-12-09T21:16:09.082Z,100805.98
2018-12-09T21:18:38.314Z,100802.87
2018-12-09T21:21:08.386Z,100808.32
2018-12-09T21:23:37.830Z,100812.74
2018-12-09T21:26:07.283Z,100820.50
2018-12-09T21:28:39.028Z,100824.30
2018-12-09T21:31:09.136Z,100827.80
2018-12-09T21:33:39.433Z,100835.58
2018-12-09T21:36:09.091Z,100833.97
2018-12-09T21:38:38.529Z,100836.20
2018-12-09T21:41:08.976Z,100843.59
2018-12-09T21:43:38.414Z,100852.91
2018-12-09T21:46:07.927Z,100850.73
2018-12-09T21:48:38.273Z,100868.83
2018-12-09T21:51:08.720Z,100860.81
2018-12-09T21:53:38.899Z,100864.88
2018-12-09T21:56:09.427Z,100862.22
2018-12-09T21:58:39.361Z,100860.78
2018-12-09T22:01:11.433Z,100872.58
2018-12-09T22:03:41.629Z,100873.41
2018-12-09T22:06:11.634Z,100878.39
2018-12-09T22:08:40.858Z,100875.77
2018-12-09T22:11:10.181Z,100878.39
2018-12-09T22:13:39.455Z,100887.48
2018-12-09T22:16:09.516Z,100904.61
2018-12-09T22:18:40.777Z,100895.88
2018-12-09T22:21:10.608Z,100895.52
2018-12-09T22:23:39.945Z,100906.41
2018-12-09T22:26:09.319Z,100919.03
2018-12-09T22:28:38.741Z,100925.92
2018-12-09T22:31:08.994Z,100932.84
2018-12-09T22:33:38.640Z,100936.33
2018-12-09T22:36:07.945Z,100941.66
2018-12-09T22:38:37.331Z,100945.64
2018-12-09T22:41:07.477Z,100949.22
2018-12-09T22:43:37.798Z,100955.47
2018-12-09T22:46:07.164Z,100960.97
2018-12-09T22:48:36.606Z,100962.37
2018-12-09T22:51:06.234Z,100963.45
2018-12-09T22:53:35.702Z,100979.89
2018-12-09T22:56:05.308Z,100988.34
2018-12-09T22:58:34.673Z,100996.89
2018-12-09T23:01:09.860Z,100997.23
2018-12-09T23:03:39.158Z,101001.77
2018-12-09T23:06:09.244Z,101009.95
2018-12-09T23:08:38.715Z,101009.47
2018-12-09T23:11:08.695Z,101017.73
2018-12-09T23:13:45.182Z,101005.14
2018-12-09T23:16:14.771Z,101011.82
2018-12-09T23:18:44.424Z,101022.22
2018-12-09T23:21:13.770Z,101025.20
2018-12-09T23:23:43.073Z,101021.75
2018-12-09T23:26:12.406Z,101034.10
2018-12-09T23:28:42.452Z,101028.77
2018-12-09T23:31:11.848Z,101027.55
2018-12-09T23:33:41.129Z,101030.88
2018-12-09T23:36:10.744Z,101032.87
2018-12-09T23:38:40.830Z,101035.02
2018-12-09T23:41:10.447Z,101034.22
2018-12-09T23:43:39.789Z,101046.81
2018-12-09T23:46:09.597Z,101053.84
2018-12-09T23:48:38.856Z,101061.63
2018-12-09T23:51:08.838Z,101062.86
2018-12-09T23:53:43.531Z,101072.98
2018-12-09T23:56:15.946Z,101067.63
2018-12-09T23:58:49.154Z,101077.63
